createdAt,value
2022-12-01T00:01:20.077Z,68.75
2022-12-01T00:03:47.087Z,68.51
2022-12-01T00:06:16.998Z,67.66
2022-12-01T00:08:45.554Z,67.75
2022-12-01T00:11:12.461Z,68.08
2022-12-01T00:13:39.250Z,68.79
2022-12-01T00:16:13.174Z,68.37
2022-12-01T00:18:40.090Z,69.16
2022-12-01T00:21:13.689Z,69.87
2022-12-01T00:23:43.714Z,69.32
2022-12-01T00:26:10.545Z,69.49
2022-12-01T00:28:37.377Z,70.32
2022-12-01T00:31:08.038Z,69.58
2022-12-01T00:33:34.924Z,70.39
2022-12-01T00:36:02.622Z,69.56
2022-12-01T00:38:29.983Z,69.75
2022-12-01T00:40:56.822Z,69.04
2022-12-01T00:43:23.884Z,69.43
2022-12-01T00:45:51.275Z,68.86
2022-12-01T00:48:18.706Z,68.87
2022-12-01T00:50:45.887Z,68.72
2022-12-01T00:53:12.695Z,69.00
2022-12-01T00:55:39.618Z,68.80
2022-12-01T00:58:06.981Z,69.70
2022-12-01T01:00:34.426Z,69.48
2022-12-01T01:03:01.782Z,69.54
2022-12-01T01:05:28.625Z,70.17
2022-12-01T01:07:55.474Z,70.04
2022-12-01T01:10:22.419Z,69.02
2022-12-01T01:12:49.277Z,70.00
2022-12-01T01:15:16.201Z,69.87
2022-12-01T01:17:42.944Z,69.89
2022-12-01T01:20:10.397Z,69.91
2022-12-01T01:22:37.237Z,69.58
2022-12-01T01:25:04.295Z,69.39
2022-12-01T01:27:31.038Z,69.23
2022-12-01T01:29:57.858Z,69.24
2022-12-01T01:32:24.604Z,69.03
2022-12-01T01:34:51.462Z,68.37
2022-12-01T01:37:18.298Z,68.61
2022-12-01T01:39:45.165Z,68.70
2022-12-01T01:42:14.375Z,68.58
2022-12-01T01:44:54.873Z,68.01
2022-12-01T01:47:38.158Z,67.73
2022-12-01T01:50:10.015Z,67.79
2022-12-01T01:52:45.189Z,67.90
2022-12-01T01:55:13.721Z,67.72
2022-12-01T01:57:42.350Z,67.91
2022-12-01T02:00:16.118Z,68.20
2022-12-01T02:02:45.070Z,69.11
2022-12-01T02:05:24.005Z,69.70
2022-12-01T02:07:52.800Z,69.52
2022-12-01T02:10:21.208Z,69.94
2022-12-01T02:12:47.948Z,68.99
2022-12-01T02:15:33.523Z,69.27
2022-12-01T02:18:18.808Z,68.52
2022-12-01T02:21:02.730Z,68.57
2022-12-01T02:24:00.113Z,69.05
2022-12-01T02:26:48.547Z,68.60
2022-12-01T02:29:37.099Z,68.34
2022-12-01T02:32:12.484Z,68.52
2022-12-01T02:35:07.831Z,69.79
2022-12-01T02:37:43.939Z,69.91
2022-12-01T02:40:18.302Z,68.93
2022-12-01T02:43:07.037Z,69.12
2022-12-01T02:45:38.870Z,69.25
2022-12-01T02:48:14.514Z,69.39
2022-12-01T02:50:43.313Z,69.57
2022-12-01T02:53:15.704Z,70.11
2022-12-01T02:55:54.026Z,69.77
2022-12-01T02:58:21.618Z,69.62
2022-12-01T03:01:07.475Z,70.16
2022-12-01T03:04:11.146Z,71.42
2022-12-01T03:07:11.502Z,70.35
2022-12-01T03:09:52.244Z,70.28
2022-12-01T03:12:37.753Z,70.04
2022-12-01T03:15:32.093Z,69.68
2022-12-01T03:18:07.456Z,69.99
2022-12-01T03:20:40.351Z,70.12
2022-12-01T03:23:15.376Z,70.09
2022-12-01T03:25:45.905Z,71.85
2022-12-01T03:28:22.804Z,71.83
2022-12-01T03:30:54.965Z,70.86
2022-12-01T03:33:29.891Z,70.56
2022-12-01T03:36:07.208Z,70.08
2022-12-01T03:38:36.582Z,71.56
2022-12-01T03:41:26.046Z,71.16
2022-12-01T03:44:04.372Z,70.67
2022-12-01T03:46:55.053Z,70.48
2022-12-01T03:49:24.245Z,70.63
2022-12-01T03:52:14.371Z,70.00
2022-12-01T03:54:53.786Z,70.50
2022-12-01T03:57:30.410Z,70.49
2022-12-01T03:59:57.495Z,70.08
2022-12-01T04:02:24.353Z,69.89
2022-12-01T04:04:51.529Z,69.56
2022-12-01T04:07:18.451Z,69.92
2022-12-01T04:09:45.401Z,70.47
2022-12-01T04:12:14.093Z,70.88
2022-12-01T04:14:40.927Z,70.03
2022-12-01T04:17:07.788Z,69.88
2022-12-01T04:19:34.952Z,70.38
2022-12-01T04:22:01.838Z,69.77
2022-12-01T04:24:28.755Z,70.20
2022-12-01T04:26:55.657Z,70.54
2022-12-01T04:29:22.493Z,70.62
2022-12-01T04:31:49.590Z,70.68
2022-12-01T04:34:16.423Z,70.39
2022-12-01T04:36:43.372Z,71.59
2022-12-01T04:39:10.203Z,72.17
2022-12-01T04:41:37.159Z,71.89
2022-12-01T04:44:04.005Z,72.32
2022-12-01T04:46:30.954Z,73.29
2022-12-01T04:48:57.884Z,72.43
2022-12-01T04:51:24.821Z,72.68
2022-12-01T04:53:51.677Z,72.21
2022-12-01T04:56:18.848Z,71.43
2022-12-01T04:58:46.079Z,72.67
2022-12-01T05:01:14.923Z,74.08
2022-12-01T05:03:44.889Z,74.63
2022-12-01T05:06:14.703Z,74.39
2022-12-01T05:08:41.849Z,73.37
2022-12-01T05:11:10.212Z,72.78
2022-12-01T05:13:37.876Z,73.47
2022-12-01T05:16:10.357Z,72.85
2022-12-01T05:18:38.195Z,72.41
2022-12-01T05:21:06.786Z,71.89
2022-12-01T05:23:36.398Z,71.20
2022-12-01T05:26:05.330Z,70.57
2022-12-01T05:28:32.846Z,70.26
2022-12-01T05:30:59.801Z,70.91
2022-12-01T05:33:28.821Z,69.53
2022-12-01T05:35:56.256Z,69.21
2022-12-01T05:38:23.235Z,69.50
2022-12-01T05:40:54.448Z,69.57
2022-12-01T05:43:28.280Z,68.82
2022-12-01T05:45:56.834Z,68.81
2022-12-01T05:48:24.118Z,67.90
2022-12-01T05:50:51.332Z,68.25
2022-12-01T05:53:19.238Z,68.09
2022-12-01T05:55:46.399Z,69.23
2022-12-01T05:58:13.625Z,67.48
2022-12-01T06:00:45.627Z,68.72
2022-12-01T06:03:13.269Z,68.71
2022-12-01T06:05:41.229Z,69.79
2022-12-01T06:08:08.580Z,70.02
2022-12-01T06:10:35.719Z,69.78
2022-12-01T06:13:02.578Z,69.72
2022-12-01T06:15:29.384Z,68.71
2022-12-01T06:17:59.408Z,68.14
2022-12-01T06:20:26.653Z,68.36
2022-12-01T06:22:53.737Z,69.08
2022-12-01T06:25:20.826Z,70.08
2022-12-01T06:27:47.848Z,68.99
2022-12-01T06:30:14.963Z,68.32
2022-12-01T06:32:41.928Z,68.28
2022-12-01T06:35:09.060Z,68.14
2022-12-01T06:37:35.983Z,68.88
2022-12-01T06:40:02.878Z,68.47
2022-12-01T06:42:30.934Z,68.91
2022-12-01T06:44:57.787Z,68.02
2022-12-01T06:47:24.725Z,68.75
2022-12-01T06:49:51.976Z,68.39
2022-12-01T06:52:19.115Z,69.08
2022-12-01T06:54:45.936Z,68.27
2022-12-01T06:57:12.983Z,67.86
2022-12-01T06:59:39.907Z,66.11
2022-12-01T07:02:07.030Z,66.80
2022-12-01T07:04:33.931Z,68.29
2022-12-01T07:07:00.783Z,68.71
2022-12-01T07:09:27.692Z,70.38
2022-12-01T07:11:54.510Z,68.99
2022-12-01T07:14:25.878Z,68.59
2022-12-01T07:16:53.012Z,68.71
2022-12-01T07:19:19.966Z,67.62
2022-12-01T07:21:46.851Z,67.44
2022-12-01T07:24:13.836Z,67.67
2022-12-01T07:26:41.410Z,66.10
2022-12-01T07:29:09.350Z,65.73
2022-12-01T07:31:37.315Z,66.47
2022-12-01T07:34:07.038Z,65.42
2022-12-01T07:36:33.988Z,64.05
2022-12-01T07:39:05.113Z,64.75
2022-12-01T07:41:32.073Z,65.81
2022-12-01T07:43:59.666Z,65.55
2022-12-01T07:46:28.013Z,66.52
2022-12-01T07:48:56.269Z,66.91
2022-12-01T07:51:24.701Z,67.02
2022-12-01T07:53:52.661Z,68.13
2022-12-01T07:56:21.328Z,68.83
2022-12-01T07:58:48.452Z,68.21
2022-12-01T08:01:18.405Z,68.59
2022-12-01T08:03:45.502Z,69.44
2022-12-01T08:06:12.649Z,69.41
2022-12-01T08:08:41.156Z,68.72
2022-12-01T08:11:12.261Z,68.61
2022-12-01T08:13:39.884Z,67.80
2022-12-01T08:16:08.685Z,67.63
2022-12-01T08:18:36.781Z,67.81
2022-12-01T08:21:04.729Z,67.96
2022-12-01T08:23:31.724Z,68.02
2022-12-01T08:26:06.076Z,67.78
2022-12-01T08:28:36.298Z,67.99
2022-12-01T08:31:30.907Z,67.17
2022-12-01T08:33:58.394Z,67.77
2022-12-01T08:36:26.107Z,67.45
2022-12-01T08:38:55.345Z,68.18
2022-12-01T08:41:23.430Z,68.14
2022-12-01T08:43:59.123Z,69.61
2022-12-01T08:46:34.370Z,69.72
2022-12-01T08:49:03.283Z,68.14
2022-12-01T08:51:30.356Z,68.42
2022-12-01T08:53:58.958Z,69.18
2022-12-01T08:56:32.210Z,69.00
2022-12-01T08:58:59.887Z,69.64
2022-12-01T09:01:27.789Z,68.56
2022-12-01T09:03:56.731Z,67.79
2022-12-01T09:06:23.626Z,68.63
2022-12-01T09:08:50.529Z,67.93
2022-12-01T09:11:18.903Z,67.61
2022-12-01T09:13:54.285Z,67.87
2022-12-01T09:16:22.014Z,67.50
2022-12-01T09:18:49.295Z,67.62
2022-12-01T09:21:23.425Z,68.21
2022-12-01T09:23:51.081Z,67.98
2022-12-01T09:26:19.855Z,68.00
2022-12-01T09:28:48.232Z,67.89
2022-12-01T09:31:16.760Z,67.52
2022-12-01T09:33:43.825Z,66.44
2022-12-01T09:36:11.635Z,65.38
2022-12-01T09:38:39.428Z,64.90
2022-12-01T09:41:23.150Z,64.62
2022-12-01T09:44:03.607Z,63.97
2022-12-01T09:46:37.906Z,65.13
2022-12-01T09:49:12.437Z,64.84
2022-12-01T09:51:39.400Z,64.92
2022-12-01T09:54:07.315Z,64.53
2022-12-01T09:56:51.472Z,64.70
2022-12-01T09:59:27.113Z,64.42
2022-12-01T10:02:03.732Z,64.55
2022-12-01T10:04:43.528Z,64.71
2022-12-01T10:07:31.970Z,64.75
2022-12-01T10:10:13.575Z,65.28
2022-12-01T10:12:43.293Z,66.01
2022-12-01T10:15:34.773Z,66.09
2022-12-01T10:18:21.048Z,66.61
2022-12-01T10:20:57.333Z,66.63
2022-12-01T10:23:44.299Z,66.51
2022-12-01T10:26:15.035Z,67.08
2022-12-01T10:28:46.201Z,67.66
2022-12-01T10:31:30.540Z,67.71
2022-12-01T10:34:04.147Z,67.56
2022-12-01T10:36:33.365Z,66.91
2022-12-01T10:39:02.494Z,65.43
2022-12-01T10:41:32.742Z,65.63
2022-12-01T10:44:00.973Z,64.96
2022-12-01T10:46:37.606Z,65.46
2022-12-01T10:49:13.460Z,65.75
2022-12-01T10:51:56.088Z,64.14
2022-12-01T10:54:31.637Z,64.37
2022-12-01T10:56:59.263Z,63.78
2022-12-01T10:59:35.735Z,64.17
2022-12-01T11:02:05.569Z,63.98
2022-12-01T11:04:40.484Z,62.58
2022-12-01T11:07:07.507Z,62.10
2022-12-01T11:09:34.510Z,63.22
2022-12-01T11:12:04.639Z,63.51
2022-12-01T11:14:41.826Z,62.76
2022-12-01T11:17:15.709Z,63.22
2022-12-01T11:19:42.758Z,62.74
2022-12-01T11:22:31.166Z,62.63
2022-12-01T11:25:20.437Z,63.07
2022-12-01T11:27:51.201Z,63.08
2022-12-01T11:30:25.030Z,62.03
2022-12-01T11:32:58.355Z,60.02
2022-12-01T11:35:37.645Z,57.52
2022-12-01T11:38:28.745Z,57.07
2022-12-01T11:40:56.703Z,57.38
2022-12-01T11:43:36.184Z,57.06
2022-12-01T11:46:06.932Z,57.52
2022-12-01T11:48:35.955Z,60.16
2022-12-01T11:51:20.075Z,61.01
2022-12-01T11:53:50.022Z,61.13
2022-12-01T11:56:19.842Z,60.83
2022-12-01T11:58:49.026Z,60.85
2022-12-01T12:01:25.483Z,60.84
2022-12-01T12:04:14.131Z,61.36
2022-12-01T12:07:04.451Z,61.56
2022-12-01T12:10:07.966Z,61.64
2022-12-01T12:12:58.350Z,61.71
2022-12-01T12:18:54.904Z,61.71
2022-12-01T12:21:55.687Z,61.30
2022-12-01T12:24:31.649Z,61.03
2022-12-01T12:27:01.408Z,61.58
2022-12-01T12:30:19.187Z,61.67
2022-12-01T12:33:10.497Z,61.61
2022-12-01T12:35:58.685Z,62.39
2022-12-01T12:38:49.563Z,63.05
2022-12-01T12:41:33.881Z,63.96
2022-12-01T12:44:18.320Z,63.73
2022-12-01T12:46:52.289Z,63.59
2022-12-01T12:49:56.298Z,64.51
2022-12-01T12:52:33.859Z,65.22
2022-12-01T12:55:08.652Z,65.41
2022-12-01T12:57:39.404Z,65.14
2022-12-01T13:00:15.351Z,64.65
2022-12-01T13:02:50.335Z,64.42
2022-12-01T13:05:26.760Z,64.01
2022-12-01T13:08:01.988Z,63.14
2022-12-01T13:10:37.653Z,63.03
2022-12-01T13:13:16.368Z,62.83
2022-12-01T13:15:44.800Z,62.79
2022-12-01T13:18:14.247Z,62.92
2022-12-01T13:20:42.149Z,62.49
2022-12-01T13:23:14.795Z,61.99
2022-12-01T13:25:43.070Z,61.76
2022-12-01T13:28:21.541Z,61.45
2022-12-01T13:30:58.798Z,61.18
2022-12-01T13:33:25.951Z,61.03
2022-12-01T13:36:22.620Z,61.76
2022-12-01T13:38:42.052Z,61.75
2022-12-01T13:41:18.120Z,62.43
2022-12-01T13:43:58.074Z,63.58
2022-12-01T13:46:30.208Z,64.56
2022-12-01T13:49:00.508Z,65.27
2022-12-01T13:51:28.217Z,66.11
2022-12-01T13:54:05.943Z,65.85
2022-12-01T13:57:01.315Z,65.43
2022-12-01T13:59:41.673Z,65.58
2022-12-01T14:02:20.904Z,66.17
2022-12-01T14:04:48.655Z,66.92
2022-12-01T14:07:24.040Z,66.28
2022-12-01T14:09:54.177Z,65.34
2022-12-01T14:12:31.937Z,64.95
2022-12-01T14:15:02.360Z,64.33
2022-12-01T14:17:33.018Z,64.70
2022-12-01T14:20:21.779Z,66.99
2022-12-01T14:23:12.461Z,67.65
2022-12-01T14:25:39.719Z,68.37
2022-12-01T14:28:15.378Z,69.02
2022-12-01T14:30:42.169Z,69.54
2022-12-01T14:33:40.200Z,69.61
2022-12-01T14:36:26.599Z,69.24
2022-12-01T14:39:11.380Z,69.18
2022-12-01T14:41:49.162Z,68.63
2022-12-01T14:44:44.113Z,67.53
2022-12-01T14:47:11.024Z,67.27
2022-12-01T14:50:07.067Z,66.63
2022-12-01T14:52:36.336Z,67.18
2022-12-01T14:55:15.252Z,66.67
2022-12-01T14:57:46.428Z,67.94
2022-12-01T15:00:24.625Z,68.07
2022-12-01T15:02:56.978Z,67.49
2022-12-01T15:05:27.314Z,66.98
2022-12-01T15:08:25.601Z,69.17
2022-12-01T15:10:56.999Z,68.95
2022-12-01T15:13:27.964Z,68.43
2022-12-01T15:16:00.781Z,67.74
2022-12-01T15:18:33.417Z,67.97
2022-12-01T15:21:15.526Z,67.26
2022-12-01T15:24:01.036Z,67.11
2022-12-01T15:26:45.968Z,67.49
2022-12-01T15:29:28.825Z,66.86
2022-12-01T15:32:15.837Z,67.23
2022-12-01T15:34:46.571Z,67.43
2022-12-01T15:37:24.594Z,68.57
2022-12-01T15:40:43.443Z,69.81
2022-12-01T15:43:14.886Z,69.73
2022-12-01T15:46:04.860Z,69.97
2022-12-01T15:48:35.117Z,70.24
2022-12-01T15:51:09.787Z,69.79
2022-12-01T15:53:52.124Z,69.69
2022-12-01T15:56:28.703Z,69.36
2022-12-01T15:59:08.427Z,69.02
2022-12-01T16:01:36.515Z,68.55
2022-12-01T16:04:21.736Z,68.70
2022-12-01T16:07:01.228Z,69.30
2022-12-01T16:09:37.694Z,70.13
2022-12-01T16:12:07.618Z,70.31
2022-12-01T16:14:35.952Z,69.61
2022-12-01T16:17:08.090Z,70.26
2022-12-01T16:19:35.038Z,70.33
2022-12-01T16:22:17.142Z,69.91
2022-12-01T16:24:54.002Z,70.48
2022-12-01T16:27:29.637Z,70.50
2022-12-01T16:29:59.588Z,70.27
2022-12-01T16:32:40.760Z,70.51
2022-12-01T16:35:22.335Z,70.12
2022-12-01T16:37:49.418Z,70.30
2022-12-01T16:40:16.770Z,70.24
2022-12-01T16:42:43.764Z,70.21
2022-12-01T16:45:13.019Z,71.13
2022-12-01T16:47:40.036Z,72.37
2022-12-01T16:50:07.303Z,70.87
2022-12-01T16:52:44.369Z,69.98
2022-12-01T16:55:33.420Z,69.94
2022-12-01T16:58:00.250Z,69.65
2022-12-01T17:00:27.242Z,69.15
2022-12-01T17:02:54.142Z,69.32
2022-12-01T17:05:22.179Z,69.14
2022-12-01T17:07:49.603Z,69.51
2022-12-01T17:10:17.178Z,69.62
2022-12-01T17:12:44.118Z,69.40
2022-12-01T17:15:11.275Z,68.72
2022-12-01T17:17:38.172Z,69.14
2022-12-01T17:20:07.183Z,69.01
2022-12-01T17:22:34.289Z,69.00
2022-12-01T17:25:01.317Z,68.40
2022-12-01T17:27:28.748Z,68.94
2022-12-01T17:29:56.069Z,69.09
2022-12-01T17:32:23.078Z,69.27
2022-12-01T17:34:50.277Z,69.76
2022-12-01T17:37:20.925Z,69.62
2022-12-01T17:39:49.333Z,69.33
2022-12-01T17:42:16.797Z,69.75
2022-12-01T17:44:47.110Z,69.96
2022-12-01T17:47:14.297Z,69.46
2022-12-01T17:49:41.239Z,69.69
2022-12-01T17:52:08.269Z,69.32
2022-12-01T17:54:35.275Z,68.73
2022-12-01T17:57:05.087Z,69.50
2022-12-01T17:59:31.998Z,70.67
2022-12-01T18:01:59.183Z,70.54
2022-12-01T18:04:26.239Z,69.77
2022-12-01T18:06:54.510Z,69.63
2022-12-01T18:09:21.989Z,69.33
2022-12-01T18:11:49.256Z,69.97
2022-12-01T18:14:16.024Z,69.17
2022-12-01T18:16:42.909Z,69.82
2022-12-01T18:19:10.903Z,69.51
2022-12-01T18:21:38.893Z,69.44
2022-12-01T18:24:07.050Z,69.39
2022-12-01T18:26:36.634Z,69.21
2022-12-01T18:29:11.559Z,69.83
2022-12-01T18:31:42.003Z,69.32
2022-12-01T18:34:12.585Z,69.86
2022-12-01T18:36:42.729Z,69.54
2022-12-01T18:39:11.319Z,69.36
2022-12-01T18:41:38.469Z,69.02
2022-12-01T18:44:06.086Z,69.75
2022-12-01T18:46:33.395Z,69.34
2022-12-01T18:49:00.593Z,69.33
2022-12-01T18:51:28.717Z,69.00
2022-12-01T18:53:57.558Z,70.69
2022-12-01T18:56:25.120Z,70.08
2022-12-01T18:59:08.620Z,70.03
2022-12-01T19:01:38.265Z,69.87
2022-12-01T19:04:06.830Z,70.02
2022-12-01T19:06:35.793Z,70.92
2022-12-01T19:09:05.434Z,70.66
2022-12-01T19:11:32.449Z,70.98
2022-12-01T19:13:59.333Z,70.71
2022-12-01T19:16:26.634Z,70.44
2022-12-01T19:18:53.649Z,70.38
2022-12-01T19:21:20.927Z,70.07
2022-12-01T19:23:48.303Z,70.24
2022-12-01T19:26:18.146Z,69.80
2022-12-01T19:28:45.964Z,70.08
2022-12-01T19:31:19.623Z,70.99
2022-12-01T19:33:47.249Z,71.49
2022-12-01T19:36:16.759Z,70.96
2022-12-01T19:38:43.927Z,70.49
2022-12-01T19:41:12.569Z,70.48
2022-12-01T19:43:39.418Z,70.95
2022-12-01T19:46:12.156Z,70.04
2022-12-01T19:48:39.516Z,70.52
2022-12-01T19:51:21.328Z,70.25
2022-12-01T19:53:48.325Z,70.44
2022-12-01T19:56:15.295Z,70.47
2022-12-01T19:58:46.069Z,69.74
2022-12-01T20:01:15.858Z,70.07
2022-12-01T20:03:52.219Z,70.64
2022-12-01T20:06:25.732Z,69.80
2022-12-01T20:08:57.124Z,70.56
2022-12-01T20:11:24.646Z,70.35
2022-12-01T20:13:51.904Z,70.81
2022-12-01T20:16:22.612Z,71.01
2022-12-01T20:18:50.571Z,71.72
2022-12-01T20:21:19.450Z,73.26
2022-12-01T20:23:48.995Z,72.65
2022-12-01T20:26:17.788Z,72.75
2022-12-01T20:28:47.190Z,74.06
2022-12-01T20:31:22.790Z,74.89
2022-12-01T20:33:51.503Z,74.00
2022-12-01T20:36:18.733Z,73.71
2022-12-01T20:38:45.736Z,73.90
2022-12-01T20:41:16.084Z,74.74
2022-12-01T20:43:42.952Z,75.90
2022-12-01T20:46:12.026Z,75.05
2022-12-01T20:48:38.897Z,76.07
2022-12-01T20:51:07.014Z,75.27
2022-12-01T20:53:35.528Z,76.14
2022-12-01T20:56:04.536Z,75.45
2022-12-01T20:58:37.229Z,74.74
2022-12-01T21:01:10.506Z,73.75
2022-12-01T21:03:39.241Z,73.39
2022-12-01T21:06:09.170Z,74.08
2022-12-01T21:08:41.419Z,76.28
2022-12-01T21:11:29.785Z,77.51
2022-12-01T21:13:56.881Z,77.26
2022-12-01T21:16:29.958Z,77.17
2022-12-01T21:19:00.397Z,75.66
2022-12-01T21:21:30.167Z,75.87
2022-12-01T21:24:12.263Z,74.89
2022-12-01T21:26:41.164Z,75.51
2022-12-01T21:29:22.037Z,76.10
2022-12-01T21:31:52.540Z,77.02
2022-12-01T21:34:24.820Z,76.86
2022-12-01T21:36:54.625Z,76.60
2022-12-01T21:39:23.965Z,75.21
2022-12-01T21:41:54.047Z,74.42
2022-12-01T21:44:23.820Z,75.27
2022-12-01T21:46:55.911Z,77.74
2022-12-01T21:49:33.919Z,80.46
2022-12-01T21:52:01.339Z,83.18
2022-12-01T21:54:43.587Z,83.26
2022-12-01T21:57:25.914Z,82.66
2022-12-01T21:59:58.095Z,82.87
2022-12-01T22:02:57.578Z,81.80
2022-12-01T22:06:01.004Z,83.31
2022-12-01T22:08:37.435Z,84.08
2022-12-01T22:11:08.811Z,84.12
2022-12-01T22:13:51.933Z,83.92
2022-12-01T22:16:33.290Z,84.09
2022-12-01T22:19:02.828Z,84.21
2022-12-01T22:21:33.680Z,84.88
2022-12-01T22:24:18.225Z,85.57
2022-12-01T22:26:48.549Z,85.75
2022-12-01T22:29:36.657Z,85.58
2022-12-01T22:32:32.825Z,85.55
2022-12-01T22:35:34.689Z,84.03
2022-12-01T22:38:07.438Z,84.43
2022-12-01T22:40:36.766Z,85.25
2022-12-01T22:43:18.664Z,85.82
2022-12-01T22:46:01.087Z,86.25
2022-12-01T22:48:28.025Z,86.32
2022-12-01T22:50:55.659Z,86.75
2022-12-01T22:53:31.827Z,87.68
2022-12-01T22:56:01.238Z,87.80
2022-12-01T22:58:34.833Z,87.08
2022-12-01T23:01:08.041Z,86.34
2022-12-01T23:03:34.876Z,86.19
2022-12-01T23:06:01.846Z,86.52
2022-12-01T23:08:28.977Z,87.23
2022-12-01T23:10:55.832Z,87.52
2022-12-01T23:13:25.337Z,87.30
2022-12-01T23:15:53.602Z,86.52
2022-12-01T23:18:31.103Z,86.17
2022-12-01T23:21:00.079Z,86.02
2022-12-01T23:23:30.114Z,87.16
2022-12-01T23:25:57.989Z,88.25
2022-12-01T23:28:25.206Z,89.00
2022-12-01T23:30:55.554Z,89.83
2022-12-01T23:33:30.681Z,89.17
2022-12-01T23:36:05.009Z,88.86
2022-12-01T23:38:41.786Z,87.91
2022-12-01T23:41:27.879Z,87.10
2022-12-01T23:43:56.155Z,86.47
2022-12-01T23:46:25.052Z,85.93
2022-12-01T23:48:56.602Z,85.91
2022-12-01T23:51:30.217Z,85.49
2022-12-01T23:54:00.431Z,85.06
2022-12-01T23:56:30.855Z,84.74
2022-12-01T23:59:00.995Z,85.25
